Yatesville, Pennsylvania
Current Conditions -  °F | °C
As of 7:54 PM on Friday 19 Dec 2014 (Local Time) from KAVP Reporting Station
Overcast Overcast  
Wind Chill: 22°   Ceiling: 1900
Heat Index: 30°   Visibility: 10mi
Dew Point: 21°   Wind: 8mph
Humidity: 69%   Direction: 350°N
Pressure: 30.16"   Gusts: NA
Location:  41.2973°N, 75.7399°W
Report Text: KAVP 200054Z AUTO 35007KT 10SM OVC019 M01/M06 A3016 RMK AO2 SLP220 T10111061
Loading
Personal Weather Stations






























Interactive Weather Map New forecast layout! Learn more

10-Day Weather Forecast

Advertisements
Track Severe Weather on mobile